createdAt,value
2022-11-13T00:01:25.798Z,17.80
2022-11-13T00:04:11.272Z,15.30
2022-11-13T00:06:59.331Z,15.80
2022-11-13T00:09:45.094Z,15.63
2022-11-13T00:12:30.479Z,15.23
2022-11-13T00:15:16.236Z,18.27
2022-11-13T00:18:03.260Z,15.00
2022-11-13T00:20:48.426Z,21.80
2022-11-13T00:23:35.674Z,13.60
2022-11-13T00:26:24.738Z,12.10
2022-11-13T00:29:10.115Z,21.60
2022-11-13T00:31:55.467Z,11.50
2022-11-13T00:34:47.551Z,17.40
2022-11-13T00:37:34.145Z,14.93
2022-11-13T00:40:19.491Z,15.10
2022-11-13T00:43:04.787Z,12.03
2022-11-13T00:45:50.183Z,10.80
2022-11-13T00:48:36.495Z,14.23
2022-11-13T00:51:22.333Z,15.57
2022-11-13T00:54:07.690Z,12.00
2022-11-13T00:56:53.236Z,17.33
2022-11-13T00:59:38.552Z,10.40
2022-11-13T01:02:23.877Z,10.07
2022-11-13T01:05:09.266Z,16.10
2022-11-13T01:07:54.980Z,14.27
2022-11-13T01:10:47.596Z,14.83
2022-11-13T01:13:38.790Z,12.00
2022-11-13T01:16:27.297Z,14.37
2022-11-13T01:19:12.599Z,14.07
2022-11-13T01:21:57.868Z,12.83
2022-11-13T01:24:43.328Z,17.93
2022-11-13T01:27:28.549Z,11.20
2022-11-13T01:30:13.847Z,14.40
2022-11-13T01:32:58.999Z,10.70
2022-11-13T01:35:44.465Z,18.33
2022-11-13T01:38:34.313Z,24.27
2022-11-13T01:41:34.067Z,16.07
2022-11-13T01:44:20.751Z,14.87
2022-11-13T01:47:06.358Z,17.43
2022-11-13T01:49:56.549Z,28.70
2022-11-13T01:52:42.883Z,19.30
2022-11-13T01:55:28.924Z,30.03
2022-11-13T01:58:14.853Z,19.33
2022-11-13T02:01:00.571Z,22.87
2022-11-13T02:03:45.763Z,22.40
2022-11-13T02:06:44.307Z,26.93
2022-11-13T02:09:36.244Z,22.00
2022-11-13T02:12:35.110Z,21.40
2022-11-13T02:15:24.147Z,21.30
2022-11-13T02:18:11.132Z,23.13
2022-11-13T02:21:38.067Z,26.43
2022-11-13T02:24:32.737Z,23.20
2022-11-13T02:27:35.988Z,23.80
2022-11-13T02:30:32.080Z,23.33
2022-11-13T02:33:31.781Z,23.83
2022-11-13T02:36:18.556Z,23.20
2022-11-13T02:39:09.402Z,26.20
2022-11-13T02:41:54.908Z,27.00
2022-11-13T02:44:40.171Z,22.43
2022-11-13T02:47:25.325Z,27.83
2022-11-13T02:50:12.049Z,30.03
2022-11-13T02:52:57.460Z,32.93
2022-11-13T02:55:42.794Z,25.73
2022-11-13T02:58:28.402Z,27.27
2022-11-13T03:01:14.589Z,27.53
2022-11-13T03:04:01.081Z,25.43
2022-11-13T03:06:46.763Z,33.17
2022-11-13T03:09:32.044Z,27.83
2022-11-13T03:12:17.371Z,24.57
2022-11-13T03:15:02.783Z,31.17
2022-11-13T03:17:48.121Z,22.50
2022-11-13T03:20:36.342Z,23.40
2022-11-13T03:23:21.462Z,32.13
2022-11-13T03:26:10.507Z,25.13
2022-11-13T03:28:56.484Z,26.17
2022-11-13T03:31:41.777Z,30.60
2022-11-13T03:34:27.105Z,25.93
2022-11-13T03:37:12.235Z,28.70
2022-11-13T03:39:57.502Z,30.80
2022-11-13T03:42:42.736Z,29.27
2022-11-13T03:45:28.111Z,25.30
2022-11-13T03:48:15.903Z,26.00
2022-11-13T03:51:01.519Z,25.30
2022-11-13T03:53:46.828Z,27.00
2022-11-13T03:56:32.079Z,26.07
2022-11-13T03:59:17.379Z,23.20
2022-11-13T04:02:02.784Z,25.33
2022-11-13T04:04:48.075Z,20.03
2022-11-13T04:07:33.414Z,20.70
2022-11-13T04:10:18.791Z,30.23
2022-11-13T04:13:04.146Z,26.00
2022-11-13T04:15:49.528Z,22.00
2022-11-13T04:18:34.659Z,22.53
2022-11-13T04:21:20.124Z,22.83
2022-11-13T04:24:05.554Z,23.37
2022-11-13T04:26:50.908Z,28.57
2022-11-13T04:29:36.215Z,17.93
2022-11-13T04:32:21.548Z,19.00
2022-11-13T04:35:07.564Z,23.10
2022-11-13T04:37:53.877Z,20.87
2022-11-13T04:40:40.677Z,19.30
2022-11-13T04:43:26.293Z,18.90
2022-11-13T04:46:11.547Z,18.67
2022-11-13T04:48:56.900Z,20.83
2022-11-13T04:51:42.237Z,18.60
2022-11-13T04:54:28.869Z,18.53
2022-11-13T04:57:14.483Z,20.13
2022-11-13T04:59:59.704Z,20.23
2022-11-13T05:02:45.311Z,21.33
2022-11-13T05:05:30.532Z,17.10
2022-11-13T05:08:15.848Z,16.47
2022-11-13T05:11:01.738Z,23.67
2022-11-13T05:13:47.002Z,17.43
2022-11-13T05:16:32.485Z,21.40
2022-11-13T05:19:18.102Z,15.80
2022-11-13T05:22:04.706Z,23.83
2022-11-13T05:24:50.090Z,17.67
2022-11-13T05:27:35.351Z,22.97
2022-11-13T05:30:20.630Z,22.17
2022-11-13T05:33:05.842Z,31.33
2022-11-13T05:35:51.052Z,19.50
2022-11-13T05:38:36.882Z,27.63
2022-11-13T05:41:23.019Z,22.07
2022-11-13T05:44:08.302Z,21.90
2022-11-13T05:46:53.506Z,19.30
2022-11-13T05:49:38.731Z,18.57
2022-11-13T05:52:23.999Z,23.10
2022-11-13T05:55:09.528Z,19.53
2022-11-13T05:57:54.949Z,20.47
2022-11-13T06:00:40.235Z,18.00
2022-11-13T06:03:25.584Z,19.23
2022-11-13T06:06:17.287Z,22.70
2022-11-13T06:09:05.806Z,15.33
2022-11-13T06:11:51.291Z,17.30
2022-11-13T06:14:36.654Z,17.97
2022-11-13T06:17:21.882Z,17.90
2022-11-13T06:20:07.939Z,18.67
2022-11-13T06:22:53.422Z,19.80
2022-11-13T06:25:38.680Z,19.67
2022-11-13T06:28:24.006Z,19.60
2022-11-13T06:31:16.091Z,20.03
2022-11-13T06:34:02.221Z,20.13
2022-11-13T06:36:47.514Z,19.03
2022-11-13T06:39:32.829Z,30.03
2022-11-13T06:42:17.986Z,30.47
2022-11-13T06:45:03.753Z,29.60
2022-11-13T06:47:49.108Z,34.00
2022-11-13T06:50:34.382Z,29.20
2022-11-13T06:53:19.790Z,26.03
2022-11-13T06:56:06.700Z,22.17
2022-11-13T06:58:52.467Z,29.03
2022-11-13T07:01:37.995Z,27.23
2022-11-13T07:04:23.895Z,29.63
2022-11-13T07:07:09.251Z,29.70
2022-11-13T07:09:54.470Z,33.20
2022-11-13T07:12:39.753Z,28.90
2022-11-13T07:15:25.154Z,30.80
2022-11-13T07:18:10.486Z,38.10
2022-11-13T07:20:55.820Z,30.47
2022-11-13T07:23:43.316Z,34.67
2022-11-13T07:26:29.184Z,32.00
2022-11-13T07:29:15.707Z,39.57
2022-11-13T07:32:00.958Z,40.63
2022-11-13T07:34:46.392Z,40.47
2022-11-13T07:37:31.662Z,34.77
2022-11-13T07:40:17.194Z,28.03
2022-11-13T07:43:03.620Z,31.77
2022-11-13T07:45:54.467Z,31.53
2022-11-13T07:48:40.234Z,36.20
2022-11-13T07:51:25.836Z,32.33
2022-11-13T07:54:11.100Z,33.97
2022-11-13T07:56:56.525Z,35.37
2022-11-13T07:59:41.817Z,37.80
2022-11-13T08:02:27.156Z,35.70
2022-11-13T08:05:12.543Z,33.60
2022-11-13T08:07:57.968Z,38.53
2022-11-13T08:10:43.309Z,37.80
2022-11-13T08:13:28.535Z,36.50
2022-11-13T08:16:13.903Z,37.03
2022-11-13T08:18:59.242Z,33.90
2022-11-13T08:21:44.470Z,40.30
2022-11-13T08:24:29.962Z,37.70
2022-11-13T08:27:15.249Z,36.47
2022-11-13T08:30:01.216Z,35.40
2022-11-13T08:32:48.043Z,39.67
2022-11-13T08:35:33.531Z,33.13
2022-11-13T08:38:18.932Z,33.23
2022-11-13T08:41:09.404Z,33.20
2022-11-13T08:43:55.578Z,31.33
2022-11-13T08:46:40.999Z,36.83
2022-11-13T08:49:26.259Z,36.27
2022-11-13T08:52:11.607Z,38.17
2022-11-13T08:54:56.846Z,35.40
2022-11-13T08:57:42.276Z,34.03
2022-11-13T09:00:29.530Z,30.83
2022-11-13T09:03:15.196Z,34.63
2022-11-13T09:06:00.883Z,30.60
2022-11-13T09:08:46.273Z,29.47
2022-11-13T09:11:31.576Z,33.53
2022-11-13T09:14:16.934Z,31.37
2022-11-13T09:17:02.272Z,28.07
2022-11-13T09:19:47.825Z,27.83
2022-11-13T09:22:34.733Z,26.57
2022-11-13T09:25:19.883Z,28.67
2022-11-13T09:28:06.610Z,29.50
2022-11-13T09:30:51.982Z,23.30
2022-11-13T09:33:37.409Z,22.80
2022-11-13T09:36:22.892Z,24.60
2022-11-13T09:39:08.388Z,15.93
2022-11-13T09:41:59.730Z,13.13
2022-11-13T09:44:57.961Z,10.43
2022-11-13T09:47:45.787Z,8.03
2022-11-13T09:50:32.506Z,8.93
2022-11-13T09:53:18.311Z,10.63
2022-11-13T09:56:27.586Z,10.00
2022-11-13T09:59:45.459Z,5.60
2022-11-13T10:03:08.966Z,4.80
2022-11-13T10:06:14.526Z,6.30
2022-11-13T10:09:36.942Z,4.57
2022-11-13T10:12:22.411Z,5.43
2022-11-13T10:15:10.285Z,5.73
2022-11-13T10:18:34.861Z,6.03
2022-11-13T10:21:43.956Z,7.30
2022-11-13T10:24:42.965Z,6.57
2022-11-13T10:27:28.317Z,7.30
2022-11-13T10:30:18.985Z,7.10
2022-11-13T10:33:08.258Z,6.80
2022-11-13T10:36:31.113Z,8.47
2022-11-13T10:39:16.767Z,7.33
2022-11-13T10:42:02.271Z,8.50
2022-11-13T10:44:59.411Z,8.23
2022-11-13T10:48:04.287Z,7.03
2022-11-13T10:51:02.858Z,6.80
2022-11-13T10:53:48.641Z,9.60
2022-11-13T10:56:35.866Z,9.87
2022-11-13T10:59:21.184Z,7.37
2022-11-13T11:02:17.201Z,7.90
2022-11-13T11:05:20.163Z,7.23
2022-11-13T11:08:10.368Z,7.50
2022-11-13T11:11:21.081Z,10.80
2022-11-13T11:14:53.684Z,9.20
2022-11-13T11:17:59.143Z,8.40
2022-11-13T11:20:56.690Z,9.57
2022-11-13T11:23:56.799Z,10.33
2022-11-13T11:26:49.482Z,7.83
2022-11-13T11:29:58.907Z,7.83
2022-11-13T11:32:53.363Z,6.80
2022-11-13T11:35:54.031Z,5.63
2022-11-13T11:39:06.524Z,6.50
2022-11-13T11:42:21.372Z,6.10
2022-11-13T11:45:27.607Z,6.40
2022-11-13T11:48:26.178Z,5.20
2022-11-13T11:51:31.844Z,5.13
2022-11-13T11:55:01.695Z,5.03
2022-11-13T11:58:28.733Z,4.70
2022-11-13T12:01:37.091Z,4.27
2022-11-13T12:04:45.369Z,4.80
2022-11-13T12:08:03.129Z,4.90
2022-11-13T12:11:22.591Z,7.00
2022-11-13T12:14:31.618Z,5.53
2022-11-13T12:17:39.690Z,5.40
2022-11-13T12:21:07.048Z,5.50
2022-11-13T12:24:14.808Z,6.10
2022-11-13T12:27:22.423Z,5.70
2022-11-13T12:30:21.917Z,6.23
2022-11-13T12:33:33.313Z,5.60
2022-11-13T12:36:20.603Z,6.10
2022-11-13T12:39:15.038Z,8.00
2022-11-13T12:42:30.629Z,6.17
2022-11-13T12:45:44.679Z,6.80
2022-11-13T12:48:43.171Z,8.17
2022-11-13T12:51:40.208Z,6.37
2022-11-13T12:54:32.431Z,7.43
2022-11-13T12:57:25.841Z,7.53
2022-11-13T13:00:30.404Z,8.17
2022-11-13T13:03:40.674Z,7.40
2022-11-13T13:06:50.831Z,8.73
2022-11-13T13:09:46.843Z,7.10
2022-11-13T13:13:01.571Z,6.70
2022-11-13T13:16:02.737Z,7.50
2022-11-13T13:18:48.711Z,8.70
2022-11-13T13:21:43.949Z,8.27
2022-11-13T13:24:36.568Z,8.97
2022-11-13T13:27:28.411Z,9.80
2022-11-13T13:30:21.721Z,12.73
2022-11-13T13:33:39.965Z,9.90
2022-11-13T13:36:51.461Z,13.03
2022-11-13T13:40:38.752Z,13.10
2022-11-13T13:44:15.332Z,15.00
2022-11-13T13:47:00.709Z,13.20
2022-11-13T13:49:46.359Z,16.40
2022-11-13T13:52:35.091Z,12.50
2022-11-13T13:55:37.043Z,14.13
2022-11-13T13:58:31.224Z,15.30
2022-11-13T14:01:31.741Z,11.20
2022-11-13T14:04:23.195Z,12.40
2022-11-13T14:07:24.018Z,10.77
2022-11-13T14:10:13.058Z,11.30
2022-11-13T14:12:58.344Z,11.20
2022-11-13T14:15:43.683Z,9.50
2022-11-13T14:18:29.521Z,9.87
2022-11-13T14:21:21.996Z,9.17
2022-11-13T14:24:17.095Z,7.50
2022-11-13T14:27:09.261Z,9.37
2022-11-13T14:29:59.998Z,6.93
2022-11-13T14:32:47.411Z,8.87
2022-11-13T14:35:32.968Z,9.37
2022-11-13T14:38:25.766Z,11.40
2022-11-13T14:41:24.600Z,9.23
2022-11-13T14:44:13.106Z,10.47
2022-11-13T14:47:19.280Z,11.70
2022-11-13T14:50:24.132Z,14.90
2022-11-13T14:53:11.127Z,13.30
2022-11-13T14:56:09.056Z,13.90
2022-11-13T14:58:54.599Z,15.40
2022-11-13T15:01:40.232Z,15.27
2022-11-13T15:04:26.188Z,19.10
2022-11-13T15:07:30.783Z,17.40
2022-11-13T15:10:20.703Z,23.10
2022-11-13T15:13:18.118Z,18.27
2022-11-13T15:16:03.984Z,22.17
2022-11-13T15:18:53.435Z,17.40
2022-11-13T15:21:39.801Z,18.53
2022-11-13T15:24:25.006Z,21.10
2022-11-13T15:27:17.371Z,22.03
2022-11-13T15:30:03.445Z,14.83
2022-11-13T15:32:53.722Z,13.97
2022-11-13T15:35:39.003Z,16.80
2022-11-13T15:38:24.400Z,14.40
2022-11-13T15:41:19.378Z,26.20
2022-11-13T15:44:15.004Z,16.40
2022-11-13T15:47:00.623Z,22.07
2022-11-13T15:49:56.765Z,19.60
2022-11-13T15:52:53.189Z,17.10
2022-11-13T15:55:40.972Z,19.70
2022-11-13T15:58:30.488Z,20.50
2022-11-13T16:01:19.554Z,25.53
2022-11-13T16:04:05.923Z,18.10
2022-11-13T16:06:51.180Z,16.97
2022-11-13T16:09:37.035Z,15.77
2022-11-13T16:12:22.279Z,20.77
2022-11-13T16:15:08.562Z,21.47
2022-11-13T16:17:56.877Z,21.63
2022-11-13T16:20:42.199Z,18.93
2022-11-13T16:23:27.757Z,23.30
2022-11-13T16:26:19.298Z,15.10
2022-11-13T16:29:19.368Z,15.00
2022-11-13T16:32:05.179Z,15.80
2022-11-13T16:34:50.524Z,14.20
2022-11-13T16:37:35.906Z,15.10
2022-11-13T16:40:26.027Z,17.40
2022-11-13T16:43:12.908Z,15.50
2022-11-13T16:46:00.323Z,21.40
2022-11-13T16:48:45.674Z,16.60
2022-11-13T16:51:31.092Z,24.33
2022-11-13T16:54:16.320Z,18.80
2022-11-13T16:57:02.249Z,22.27
2022-11-13T16:59:47.426Z,17.30
2022-11-13T17:02:32.619Z,18.37
2022-11-13T17:05:19.347Z,19.27
2022-11-13T17:08:06.230Z,25.80
2022-11-13T17:10:59.501Z,18.97
2022-11-13T17:13:50.821Z,21.67
2022-11-13T17:16:36.371Z,21.43
2022-11-13T17:19:21.794Z,22.67
2022-11-13T17:22:07.554Z,21.33
2022-11-13T17:24:53.134Z,19.97
2022-11-13T17:27:38.420Z,24.40
2022-11-13T17:30:23.815Z,22.63
2022-11-13T17:33:09.282Z,24.93
2022-11-13T17:35:56.276Z,27.43
2022-11-13T17:38:41.873Z,25.90
2022-11-13T17:41:27.043Z,25.00
2022-11-13T17:44:12.344Z,26.47
2022-11-13T17:46:57.636Z,27.17
2022-11-13T17:49:42.948Z,29.53
2022-11-13T17:52:28.235Z,29.40
2022-11-13T17:55:14.047Z,25.33
2022-11-13T17:58:01.186Z,24.27
2022-11-13T18:00:46.753Z,19.57
2022-11-13T18:03:32.262Z,24.33
2022-11-13T18:06:20.109Z,22.33
2022-11-13T18:09:06.307Z,23.17
2022-11-13T18:11:51.620Z,26.33
2022-11-13T18:14:36.968Z,20.77
2022-11-13T18:17:23.442Z,25.10
2022-11-13T18:20:09.777Z,21.03
2022-11-13T18:22:56.129Z,22.87
2022-11-13T18:25:41.350Z,26.23
2022-11-13T18:28:26.805Z,22.83
2022-11-13T18:31:15.955Z,21.07
2022-11-13T18:34:04.123Z,23.33
2022-11-13T18:36:49.910Z,23.13
2022-11-13T18:39:35.494Z,22.20
2022-11-13T18:42:20.748Z,27.13
2022-11-13T18:45:07.091Z,28.20
2022-11-13T18:47:52.557Z,24.83
2022-11-13T18:50:37.910Z,29.10
2022-11-13T18:53:23.429Z,30.20
2022-11-13T18:56:13.574Z,28.70
2022-11-13T18:59:00.053Z,31.00
2022-11-13T19:01:45.575Z,31.10
2022-11-13T19:04:31.339Z,31.20
2022-11-13T19:07:16.956Z,30.37
2022-11-13T19:10:02.932Z,27.43
2022-11-13T19:12:48.551Z,34.73
2022-11-13T19:15:39.017Z,26.37
2022-11-13T19:18:24.668Z,29.57
2022-11-13T19:21:16.340Z,35.83
2022-11-13T19:24:02.589Z,26.63
2022-11-13T19:26:48.173Z,25.33
2022-11-13T19:29:33.565Z,31.20
2022-11-13T19:32:18.886Z,28.80
2022-11-13T19:35:04.655Z,28.53
2022-11-13T19:37:57.768Z,30.67
2022-11-13T19:40:51.069Z,28.43
2022-11-13T19:43:39.494Z,33.63
2022-11-13T19:46:25.276Z,27.20
2022-11-13T19:49:10.873Z,25.60
2022-11-13T19:51:56.303Z,23.90
2022-11-13T19:54:42.090Z,22.37
2022-11-13T19:57:27.485Z,33.03
2022-11-13T20:00:13.326Z,25.70
2022-11-13T20:02:58.492Z,25.40
2022-11-13T20:05:44.113Z,27.23
2022-11-13T20:08:30.099Z,25.77
2022-11-13T20:11:15.840Z,24.93
2022-11-13T20:14:01.113Z,24.93
2022-11-13T20:16:46.413Z,26.40
2022-11-13T20:19:31.677Z,23.37
2022-11-13T20:22:17.000Z,22.40
2022-11-13T20:25:02.449Z,20.03
2022-11-13T20:27:47.806Z,24.57
2022-11-13T20:30:33.775Z,22.87
2022-11-13T20:33:22.620Z,26.07
2022-11-13T20:36:09.506Z,24.37
2022-11-13T20:38:57.027Z,20.57
2022-11-13T20:41:42.384Z,21.40
2022-11-13T20:44:27.569Z,23.73
2022-11-13T20:47:12.991Z,21.37
2022-11-13T20:49:58.251Z,23.10
2022-11-13T20:52:44.436Z,20.90
2022-11-13T20:55:30.659Z,20.97
2022-11-13T20:58:16.071Z,23.53
2022-11-13T21:01:07.794Z,23.60
2022-11-13T21:03:53.419Z,23.73
2022-11-13T21:06:38.741Z,25.67
2022-11-13T21:09:24.506Z,28.23
2022-11-13T21:12:09.842Z,22.47
2022-11-13T21:14:55.183Z,25.00
2022-11-13T21:17:40.552Z,23.00
2022-11-13T21:20:25.715Z,23.20
2022-11-13T21:23:10.988Z,25.13
2022-11-13T21:26:01.466Z,21.03
2022-11-13T21:28:46.879Z,22.97
2022-11-13T21:31:32.159Z,25.50
2022-11-13T21:34:17.598Z,24.10
2022-11-13T21:37:02.891Z,25.07
2022-11-13T21:39:48.394Z,29.10
2022-11-13T21:42:33.755Z,26.47
2022-11-13T21:45:19.118Z,28.00
2022-11-13T21:48:04.435Z,25.20
2022-11-13T21:50:50.104Z,24.13
2022-11-13T21:53:35.911Z,25.73
2022-11-13T21:56:21.432Z,25.50
2022-11-13T21:59:07.058Z,25.33
2022-11-13T22:01:52.631Z,26.10
2022-11-13T22:04:37.864Z,29.70
2022-11-13T22:07:23.385Z,26.00
2022-11-13T22:10:08.839Z,30.97
2022-11-13T22:12:54.659Z,28.17
2022-11-13T22:15:40.539Z,27.33
2022-11-13T22:18:26.165Z,25.27
2022-11-13T22:21:14.153Z,22.40
2022-11-13T22:24:01.327Z,31.37
2022-11-13T22:26:47.793Z,30.27
2022-11-13T22:29:33.010Z,34.47
2022-11-13T22:32:18.257Z,31.87
2022-11-13T22:35:03.688Z,40.43
2022-11-13T22:37:49.040Z,31.40
2022-11-13T22:40:34.303Z,33.17
2022-11-13T22:43:19.787Z,33.40
2022-11-13T22:46:12.252Z,32.40
2022-11-13T22:49:01.568Z,30.20
2022-11-13T22:51:46.735Z,33.70
2022-11-13T22:54:32.110Z,33.30
2022-11-13T22:57:17.285Z,32.73
2022-11-13T23:00:04.855Z,36.00
2022-11-13T23:02:50.411Z,30.57
2022-11-13T23:05:36.275Z,28.57
2022-11-13T23:08:21.517Z,31.10
2022-11-13T23:11:39.791Z,33.40
2022-11-13T23:14:25.637Z,31.40
2022-11-13T23:17:11.068Z,33.40
2022-11-13T23:19:56.338Z,34.63
2022-11-13T23:22:41.654Z,34.97
2022-11-13T23:25:26.903Z,34.10
2022-11-13T23:28:12.185Z,36.33
2022-11-13T23:30:57.502Z,34.93
2022-11-13T23:33:42.788Z,34.07
2022-11-13T23:36:30.460Z,33.63
2022-11-13T23:39:16.185Z,40.10
2022-11-13T23:42:01.952Z,34.63
2022-11-13T23:44:47.846Z,36.20
2022-11-13T23:47:33.180Z,35.97
2022-11-13T23:50:18.679Z,40.63
2022-11-13T23:53:03.902Z,30.97
2022-11-13T23:55:49.275Z,33.00
2022-11-13T23:58:35.013Z,33.33
